Time;durP1;ratioP1;P1;durP2;ratioP2;P2;SDS_P1;SDS_P2;PMS_P1;PMS_P2;Temp;Humidity;BMP_temperature;BMP_pressure;BME280_temperature;BME280_humidity;BME280_pressure;Samples;Min_cycle;Max_cycle;Signal;HPM_P1;HPM_P2
2023/09/11 00:01:48;;;;;;;37.13;9.33;;;30.90;56.10;;;;;;5067179;28;20286;-76
2023/09/11 00:04:15;;;;;;;28.95;8.40;;;30.90;56.10;;;;;;5059314;28;20278;-75
2023/09/11 00:06:42;;;;;;;34.15;8.48;;;30.90;56.10;;;;;;5065822;28;20283;-75
2023/09/11 00:09:10;;;;;;;35.40;9.07;;;30.90;56.10;;;;;;5060720;28;20235;-76
2023/09/11 00:11:37;;;;;;;25.37;8.90;;;30.90;56.10;;;;;;5061406;28;20200;-76
2023/09/11 00:14:06;;;;;;;30.17;9.10;;;30.90;56.10;;;;;;5047222;28;20204;-76
2023/09/11 00:16:33;;;;;;;32.90;9.37;;;30.90;56.10;;;;;;5047611;28;20279;-76
2023/09/11 00:19:00;;;;;;;37.77;9.57;;;30.90;56.10;;;;;;5059295;28;20223;-75
2023/09/11 00:21:27;;;;;;;28.02;8.90;;;30.80;56.00;;;;;;5062086;28;20219;-76
2023/09/11 00:23:54;;;;;;;41.88;9.77;;;30.80;56.10;;;;;;5049816;28;20296;-76
2023/09/11 00:26:21;;;;;;;32.87;8.70;;;30.80;56.00;;;;;;5061587;28;20191;-76
2023/09/11 00:28:48;;;;;;;42.53;9.32;;;30.80;56.00;;;;;;5050516;28;20287;-75
2023/09/11 00:31:17;;;;;;;32.58;9.02;;;30.80;56.00;;;;;;5078692;28;20674;-76
2023/09/11 00:33:44;;;;;;;38.23;9.40;;;30.80;56.00;;;;;;5055411;28;20719;-76
2023/09/11 00:36:11;;;;;;;30.67;9.07;;;30.70;56.00;;;;;;5057322;28;20196;-76
2023/09/11 00:38:39;;;;;;;29.30;8.60;;;30.80;56.00;;;;;;5055864;28;20227;-76
2023/09/11 00:41:06;;;;;;;37.90;9.10;;;30.70;56.00;;;;;;5066865;28;20207;-76
2023/09/11 00:43:33;;;;;;;30.63;8.82;;;30.70;56.00;;;;;;5059899;28;20672;-76
2023/09/11 00:46:00;;;;;;;33.60;9.57;;;30.70;56.00;;;;;;5047026;28;20199;-76
2023/09/11 00:48:29;;;;;;;35.35;9.27;;;30.70;56.00;;;;;;5064848;28;20216;-76
2023/09/11 00:50:57;;;;;;;28.33;8.83;;;30.70;56.00;;;;;;5047648;28;20338;-76
2023/09/11 00:53:25;;;;;;;30.63;9.17;;;30.70;56.00;;;;;;5064077;28;20660;-75
2023/09/11 00:55:52;;;;;;;48.28;10.10;;;30.70;56.00;;;;;;5057461;28;20568;-75
2023/09/11 00:58:19;;;;;;;44.63;10.67;;;30.70;56.00;;;;;;5062880;28;20965;-76
2023/09/11 01:00:48;;;;;;;28.37;9.10;;;30.70;56.00;;;;;;5058779;28;20635;-76
2023/09/11 01:03:15;;;;;;;36.95;9.73;;;30.70;56.00;;;;;;5070040;28;20287;-76
2023/09/11 01:05:44;;;;;;;48.72;10.25;;;30.70;56.00;;;;;;5068615;28;20295;-77
2023/09/11 01:08:11;;;;;;;38.43;10.63;;;30.70;56.00;;;;;;5054257;28;20294;-76
2023/09/11 01:10:38;;;;;;;27.40;9.57;;;30.70;56.00;;;;;;5063575;28;20211;-76
2023/09/11 01:13:06;;;;;;;30.58;9.05;;;30.60;56.00;;;;;;5066353;28;20300;-76
2023/09/11 01:15:40;;;;;;;44.60;10.55;;;30.60;55.90;;;;;;5070210;28;20199;-75
2023/09/11 01:18:14;;;;;;;32.63;9.87;;;30.70;56.00;;;;;;5069060;28;20222;-75
2023/09/11 01:21:20;;;;;;;28.03;8.43;;;30.60;55.90;;;;;;5061167;28;20282;-77
2023/09/11 01:24:08;;;;;;;29.10;9.13;;;30.60;55.90;;;;;;5056257;28;20290;-75
2023/09/11 01:26:52;;;;;;;35.07;9.93;;;30.60;56.50;;;;;;5063706;28;20710;-75
2023/09/11 01:29:25;;;;;;;43.03;10.93;;;30.60;55.90;;;;;;5062282;28;20203;-77
2023/09/11 01:31:55;;;;;;;36.13;9.80;;;30.60;55.90;;;;;;5083634;28;20287;-76
2023/09/11 01:34:22;;;;;;;37.47;10.00;;;30.60;56.00;;;;;;5069792;28;20291;-76
2023/09/11 01:36:49;;;;;;;27.27;9.07;;;30.60;56.00;;;;;;5061611;28;20857;-76
2023/09/11 01:39:17;;;;;;;27.20;9.20;;;30.50;55.90;;;;;;5056931;28;20602;-76
2023/09/11 01:41:47;;;;;;;33.97;9.43;;;30.60;56.00;;;;;;5060010;28;20203;-78
2023/09/11 01:44:18;;;;;;;30.87;9.43;;;30.50;55.90;;;;;;5069671;28;20310;-76
2023/09/11 01:46:48;;;;;;;33.70;10.50;;;30.60;56.60;;;;;;5057701;28;20652;-76
2023/09/11 01:49:17;;;;;;;29.07;9.53;;;30.50;55.90;;;;;;5062279;28;20285;-76
2023/09/11 01:51:44;;;;;;;28.90;9.37;;;30.50;55.90;;;;;;5077025;28;20295;-78
2023/09/11 01:54:12;;;;;;;38.30;10.40;;;30.50;55.90;;;;;;5066726;28;20196;-76
2023/09/11 01:56:39;;;;;;;35.40;10.27;;;30.50;55.90;;;;;;5064313;28;20654;-76
2023/09/11 01:59:06;;;;;;;32.88;9.95;;;30.50;55.90;;;;;;5049724;28;20327;-76
2023/09/11 02:01:33;;;;;;;48.77;11.30;;;30.50;55.90;;;;;;5049996;28;20207;-77
2023/09/11 02:04:02;;;;;;;30.07;9.37;;;30.50;55.90;;;;;;5050436;28;20198;-77
2023/09/11 02:06:29;;;;;;;35.25;9.50;;;30.50;56.00;;;;;;5066363;28;20223;-79
2023/09/11 02:08:56;;;;;;;33.30;9.73;;;30.50;55.90;;;;;;5069110;28;20203;-77
2023/09/11 02:11:23;;;;;;;34.77;10.40;;;30.50;55.90;;;;;;5070202;28;20214;-76
2023/09/11 02:13:51;;;;;;;34.57;9.77;;;30.50;55.90;;;;;;5069452;28;20306;-77
2023/09/11 02:16:18;;;;;;;30.37;9.50;;;30.50;55.90;;;;;;5069703;28;20535;-77
2023/09/11 02:18:45;;;;;;;31.33;9.85;;;30.50;55.90;;;;;;5069136;28;20219;-77
2023/09/11 02:21:13;;;;;;;32.50;10.40;;;30.50;55.90;;;;;;5069395;28;20227;-77
2023/09/11 02:23:41;;;;;;;39.33;10.77;;;30.50;55.90;;;;;;5069411;28;20203;-77
2023/09/11 02:26:08;;;;;;;27.90;9.73;;;30.50;55.90;;;;;;5069202;28;20230;-77
2023/09/11 02:28:35;;;;;;;32.20;9.80;;;30.40;55.90;;;;;;5070452;28;20222;-76
2023/09/11 02:31:03;;;;;;;29.30;10.00;;;30.40;55.90;;;;;;5069701;28;20257;-76
2023/09/11 02:33:30;;;;;;;43.50;11.03;;;30.50;56.50;;;;;;5069439;28;20211;-76
2023/09/11 02:35:57;;;;;;;32.80;11.00;;;30.40;55.90;;;;;;5069244;28;20192;-77
2023/09/11 02:38:26;;;;;;;38.30;11.03;;;30.50;55.90;;;;;;5068963;28;20199;-77
2023/09/11 02:40:53;;;;;;;40.23;10.67;;;30.40;55.90;;;;;;5069115;28;20274;-77
2023/09/11 02:43:20;;;;;;;32.27;10.40;;;30.50;55.90;;;;;;5070072;28;20298;-77
2023/09/11 02:45:47;;;;;;;38.23;10.80;;;30.50;55.90;;;;;;5087457;28;20250;-76
2023/09/11 02:48:14;;;;;;;36.20;10.23;;;30.40;55.90;;;;;;5065285;28;20283;-77
2023/09/11 02:50:41;;;;;;;28.30;9.37;;;30.40;55.90;;;;;;5049377;28;20311;-76
2023/09/11 02:53:09;;;;;;;34.70;10.40;;;30.40;55.90;;;;;;5054366;28;20299;-76
2023/09/11 02:55:39;;;;;;;32.47;10.10;;;30.40;55.90;;;;;;5069449;28;20264;-75
2023/09/11 02:58:06;;;;;;;35.08;10.80;;;30.40;55.90;;;;;;5064089;28;20287;-76
2023/09/11 03:00:34;;;;;;;37.60;10.93;;;30.40;55.90;;;;;;5078029;28;20223;-78
2023/09/11 03:03:02;;;;;;;47.40;12.03;;;30.40;55.90;;;;;;5076768;28;20298;-77
2023/09/11 03:05:31;;;;;;;34.77;10.47;;;30.40;55.90;;;;;;5068518;28;20231;-76
2023/09/11 03:07:59;;;;;;;36.83;10.77;;;30.30;55.80;;;;;;5069147;28;20198;-77
2023/09/11 03:10:26;;;;;;;32.80;10.70;;;30.40;55.90;;;;;;5067779;28;20214;-77
2023/09/11 03:12:54;;;;;;;36.23;11.57;;;30.30;55.80;;;;;;5068360;28;20671;-76
2023/09/11 03:15:25;;;;;;;29.30;10.67;;;30.40;55.90;;;;;;5066158;28;20202;-77
2023/09/11 03:17:52;;;;;;;39.77;11.03;;;30.40;55.90;;;;;;5066192;28;20289;-77
2023/09/11 03:20:19;;;;;;;34.53;10.40;;;30.30;55.80;;;;;;5051118;28;20219;-76
2023/09/11 03:22:46;;;;;;;33.17;10.00;;;30.30;55.80;;;;;;5068236;28;20226;-76
2023/09/11 03:25:13;;;;;;;32.27;10.40;;;30.30;56.40;;;;;;5068143;28;20286;-77
2023/09/11 03:27:40;;;;;;;34.33;10.70;;;30.30;55.80;;;;;;5059645;28;20615;-77
2023/09/11 03:30:09;;;;;;;42.13;11.60;;;30.30;55.90;;;;;;5047976;28;20323;-77
2023/09/11 03:32:36;;;;;;;29.13;10.33;;;30.30;55.80;;;;;;5067699;28;20290;-76
2023/09/11 03:35:04;;;;;;;28.43;10.60;;;30.30;55.80;;;;;;5067989;28;20207;-76
2023/09/11 03:37:30;;;;;;;36.90;11.13;;;30.30;55.80;;;;;;5067054;28;20194;-76
2023/09/11 03:39:58;;;;;;;37.10;11.17;;;30.30;56.40;;;;;;5068753;28;20232;-76
2023/09/11 03:42:26;;;;;;;36.20;11.17;;;30.30;55.90;;;;;;5063371;28;20636;-77
2023/09/11 03:44:52;;;;;;;36.17;10.87;;;30.30;55.80;;;;;;5048088;28;20204;-77
2023/09/11 03:47:21;;;;;;;32.90;10.40;;;30.30;55.90;;;;;;5047190;28;20266;-76
2023/09/11 03:49:48;;;;;;;46.43;12.20;;;30.20;55.80;;;;;;5047592;28;20200;-76
2023/09/11 03:52:15;;;;;;;33.73;10.70;;;30.30;55.80;;;;;;5048002;28;20205;-77
2023/09/11 03:54:42;;;;;;;31.87;11.00;;;30.20;56.40;;;;;;5059388;28;20329;-79
2023/09/11 03:57:09;;;;;;;33.33;10.33;;;30.20;55.80;;;;;;5066822;28;20290;-77
2023/09/11 03:59:36;;;;;;;38.47;11.33;;;30.20;56.40;;;;;;5067895;28;20310;-76
2023/09/11 04:02:03;;;;;;;39.97;11.83;;;30.20;55.80;;;;;;5066490;28;20215;-76
2023/09/11 04:04:31;;;;;;;30.67;10.20;;;30.20;55.80;;;;;;5067936;28;20219;-77
2023/09/11 04:06:58;;;;;;;39.63;11.87;;;30.20;55.80;;;;;;5066988;28;20678;-76
2023/09/11 04:09:25;;;;;;;37.27;11.53;;;30.20;55.80;;;;;;5047823;28;20200;-76
2023/09/11 04:11:52;;;;;;;37.47;11.20;;;30.20;55.80;;;;;;5058450;28;20314;-76
2023/09/11 04:14:19;;;;;;;31.17;10.43;;;30.20;56.40;;;;;;5067657;28;20306;-77
2023/09/11 04:16:46;;;;;;;44.63;11.50;;;30.20;55.80;;;;;;5059185;28;20200;-76
2023/09/11 04:19:13;;;;;;;36.07;11.00;;;30.20;56.40;;;;;;5047705;28;20666;-76
2023/09/11 04:21:41;;;;;;;34.50;11.83;;;30.10;55.80;;;;;;5078057;28;20319;-77
2023/09/11 04:24:12;;;;;;;35.30;12.10;;;30.20;55.80;;;;;;5085330;28;20289;-76
2023/09/11 04:26:40;;;;;;;34.00;11.87;;;30.10;55.70;;;;;;5053792;28;20207;-77
2023/09/11 04:29:11;;;;;;;32.60;12.10;;;30.10;55.80;;;;;;5067920;28;20222;-75
2023/09/11 04:31:39;;;;;;;30.57;11.40;;;30.10;55.70;;;;;;5071992;28;20553;-76
2023/09/11 04:34:05;;;;;;;34.50;11.07;;;30.10;55.70;;;;;;5070778;28;20584;-75
2023/09/11 04:36:32;;;;;;;40.17;12.60;;;30.10;55.70;;;;;;5069769;28;20291;-78
2023/09/11 04:39:01;;;;;;;31.83;10.83;;;30.10;55.80;;;;;;5052160;28;20210;-77
2023/09/11 04:41:28;;;;;;;34.03;10.97;;;30.10;55.70;;;;;;5055680;28;20581;-78
2023/09/11 04:43:55;;;;;;;35.50;11.23;;;30.10;55.70;;;;;;5071604;28;20227;-77
2023/09/11 04:46:22;;;;;;;30.97;11.03;;;30.10;55.70;;;;;;5067699;28;20318;-77
2023/09/11 04:48:49;;;;;;;40.67;12.03;;;30.10;55.70;;;;;;5066914;28;20540;-77
2023/09/11 04:51:15;;;;;;;35.70;12.20;;;30.10;55.70;;;;;;5092033;28;20218;-78
2023/09/11 04:53:42;;;;;;;28.87;10.67;;;30.10;55.70;;;;;;5059539;28;20253;-77
2023/09/11 04:56:11;;;;;;;30.17;11.07;;;30.10;55.70;;;;;;5065062;28;20541;-77
2023/09/11 04:58:38;;;;;;;29.90;11.00;;;30.10;55.70;;;;;;5069854;28;20283;-78
2023/09/11 05:01:04;;;;;;;36.55;12.00;;;30.00;56.20;;;;;;5060315;28;20404;-78
2023/09/11 05:03:31;;;;;;;32.67;11.23;;;30.00;55.60;;;;;;5065662;28;20203;-77
2023/09/11 05:05:59;;;;;;;72.17;14.20;;;30.00;55.70;;;;;;5067054;28;20205;-77
2023/09/11 05:08:26;;;;;;;31.73;11.43;;;30.00;55.70;;;;;;5060645;28;20196;-78
2023/09/11 05:10:53;;;;;;;34.07;11.53;;;30.00;55.60;;;;;;5054294;28;20226;-77
2023/09/11 05:13:21;;;;;;;50.90;13.07;;;30.00;55.60;;;;;;5059655;28;20298;-76
2023/09/11 05:15:49;;;;;;;37.63;11.87;;;30.00;55.60;;;;;;5058896;28;20652;-75
2023/09/11 05:18:16;;;;;;;37.33;11.87;;;30.00;55.60;;;;;;5060980;28;20203;-76
2023/09/11 05:20:44;;;;;;;36.40;11.83;;;30.00;55.60;;;;;;5050766;28;20224;-76
2023/09/11 05:23:11;;;;;;;39.40;12.63;;;29.90;55.60;;;;;;5049576;28;20299;-75
2023/09/11 05:25:38;;;;;;;33.97;11.10;;;29.90;55.60;;;;;;5050759;28;20203;-75
2023/09/11 05:28:06;;;;;;;36.73;11.97;;;29.90;55.60;;;;;;5053932;28;20562;-76
2023/09/11 05:30:37;;;;;;;67.17;14.57;;;29.90;55.60;;;;;;5069230;28;20199;-76
2023/09/11 05:33:05;;;;;;;30.67;11.07;;;29.90;55.60;;;;;;5064591;28;20221;-77
2023/09/11 05:35:32;;;;;;;35.37;12.17;;;29.90;55.60;;;;;;5063039;28;20257;-77
2023/09/11 05:37:59;;;;;;;34.80;11.33;;;29.90;55.60;;;;;;5071222;28;20191;-77
2023/09/11 05:40:26;;;;;;;32.80;10.90;;;29.90;55.60;;;;;;5055902;28;20223;-76
2023/09/11 05:42:53;;;;;;;49.70;12.33;;;29.90;55.60;;;;;;5068986;28;20207;-77
2023/09/11 05:45:20;;;;;;;36.20;11.27;;;29.90;55.60;;;;;;5070113;28;20294;-75
2023/09/11 05:47:48;;;;;;;33.57;10.90;;;29.90;55.60;;;;;;5062319;28;20284;-76
2023/09/11 05:50:17;;;;;;;37.23;11.23;;;29.90;55.60;;;;;;5061065;28;20291;-77
2023/09/11 05:52:44;;;;;;;36.43;11.30;;;29.80;55.50;;;;;;5065056;28;20294;-75
2023/09/11 05:55:11;;;;;;;35.37;11.13;;;29.80;55.50;;;;;;5069879;28;20242;-75
2023/09/11 05:57:38;;;;;;;43.13;12.00;;;29.80;55.50;;;;;;5067272;28;20340;-75
2023/09/11 06:00:12;;;;;;;34.77;10.67;;;29.80;55.50;;;;;;5050523;28;20208;-75
2023/09/11 06:02:39;;;;;;;54.00;12.73;;;29.80;55.60;;;;;;5068263;28;20206;-75
2023/09/11 06:05:08;;;;;;;37.47;11.70;;;29.80;55.50;;;;;;5069682;28;20205;-76
2023/09/11 06:07:35;;;;;;;27.57;10.53;;;29.70;55.50;;;;;;5059358;28;20279;-77
2023/09/11 06:10:03;;;;;;;33.33;11.27;;;29.80;55.60;;;;;;5049590;28;20208;-76
2023/09/11 06:12:30;;;;;;;46.20;12.87;;;29.80;55.60;;;;;;5071543;28;20323;-75
2023/09/11 06:14:57;;;;;;;36.87;11.57;;;29.80;55.60;;;;;;5052078;28;20208;-78
2023/09/11 06:17:24;;;;;;;37.93;11.20;;;29.70;56.10;;;;;;5051180;28;20723;-76
2023/09/11 06:19:51;;;;;;;35.87;11.60;;;29.70;55.60;;;;;;5050218;28;20243;-74
2023/09/11 06:22:19;;;;;;;36.80;11.70;;;29.70;55.60;;;;;;5051375;28;20306;-78
2023/09/11 06:24:46;;;;;;;36.13;10.73;;;29.70;55.60;;;;;;5061193;28;20234;-75
2023/09/11 06:27:13;;;;;;;31.07;10.63;;;29.70;55.60;;;;;;5054127;28;20292;-76
2023/09/11 06:29:40;;;;;;;35.23;10.63;;;29.70;55.60;;;;;;5049276;28;20196;-75
2023/09/11 06:32:08;;;;;;;51.13;13.03;;;29.70;55.60;;;;;;5051170;28;20228;-75
2023/09/11 06:34:36;;;;;;;40.30;11.53;;;29.60;55.50;;;;;;5050995;28;20618;-76
2023/09/11 06:37:03;;;;;;;31.23;10.77;;;29.70;55.60;;;;;;5048765;28;20235;-75
2023/09/11 06:39:31;;;;;;;51.80;12.03;;;29.60;55.60;;;;;;5049653;28;20200;-76
2023/09/11 06:41:59;;;;;;;50.67;12.00;;;29.60;55.60;;;;;;5054325;28;20203;-75
2023/09/11 06:44:25;;;;;;;30.80;11.07;;;29.60;55.60;;;;;;5061108;28;20281;-75
2023/09/11 06:46:53;;;;;;;35.23;10.20;;;29.60;55.60;;;;;;5049424;28;20208;-77
2023/09/11 06:49:20;;;;;;;32.87;10.13;;;29.60;55.60;;;;;;5052165;28;20263;-75
2023/09/11 06:51:47;;;;;;;36.53;10.67;;;29.60;55.60;;;;;;5067386;28;20542;-79
2023/09/11 06:54:14;;;;;;;54.93;12.43;;;29.60;55.70;;;;;;5061200;28;20203;-76
2023/09/11 06:56:43;;;;;;;55.40;12.37;;;29.60;55.70;;;;;;5053108;28;20200;-76
2023/09/11 06:59:11;;;;;;;67.67;13.03;;;29.60;55.70;;;;;;5049463;28;20200;-75
2023/09/11 07:01:40;;;;;;;46.93;11.63;;;29.60;55.70;;;;;;5052956;28;20231;-76
2023/09/11 07:04:10;;;;;;;36.93;10.37;;;29.60;55.70;;;;;;5061703;28;20198;-78
2023/09/11 07:06:37;;;;;;;58.33;13.07;;;29.60;55.70;;;;;;5064564;28;20230;-77
2023/09/11 07:09:05;;;;;;;66.87;13.27;;;29.60;55.70;;;;;;5055799;28;20657;-77
2023/09/11 07:11:32;;;;;;;59.13;13.43;;;29.60;55.70;;;;;;5067114;28;20695;-82
2023/09/11 07:14:02;;;;;;;44.13;11.63;;;29.60;56.40;;;;;;5065131;28;20210;-78
2023/09/11 07:16:29;;;;;;;45.50;11.50;;;29.60;55.80;;;;;;5054037;28;20258;-78
2023/09/11 07:18:56;;;;;;;29.80;10.27;;;29.60;55.80;;;;;;5067399;28;20286;-78
2023/09/11 07:21:23;;;;;;;60.13;13.23;;;29.50;55.80;;;;;;5053700;28;20314;-77
2023/09/11 07:23:50;;;;;;;56.23;12.50;;;29.60;55.80;;;;;;5047943;28;20196;-77
2023/09/11 07:26:17;;;;;;;28.97;9.53;;;29.60;55.80;;;;;;5055914;28;20279;-77
2023/09/11 07:29:03;;;;;;;42.17;11.20;;;29.60;55.80;;;;;;5049700;28;20204;-77
2023/09/11 07:31:31;;;;;;;22.43;9.37;;;29.60;55.80;;;;;;5058266;28;20195;-77
2023/09/11 07:33:58;;;;;;;33.83;10.90;;;29.60;55.80;;;;;;5050164;28;20307;-77
2023/09/11 07:36:27;;;;;;;37.13;10.90;;;29.60;55.90;;;;;;5066070;28;20283;-77
2023/09/11 07:38:54;;;;;;;30.10;10.30;;;29.60;55.80;;;;;;5067541;28;20200;-78
2023/09/11 07:41:22;;;;;;;39.27;10.47;;;29.60;55.90;;;;;;5051858;28;20303;-79
2023/09/11 07:43:50;;;;;;;35.03;10.43;;;29.60;55.80;;;;;;5058317;28;20211;-76
2023/09/11 07:46:19;;;;;;;29.20;10.00;;;29.60;55.80;;;;;;5064785;28;20200;-77
2023/09/11 07:48:47;;;;;;;65.30;13.40;;;29.60;55.80;;;;;;5064196;28;20306;-77
2023/09/11 07:51:14;;;;;;;38.83;11.10;;;29.60;55.80;;;;;;5052298;28;20759;-78
2023/09/11 07:53:42;;;;;;;41.07;11.00;;;29.60;55.90;;;;;;5048529;28;20215;-75
2023/09/11 07:56:11;;;;;;;32.47;10.50;;;29.60;55.90;;;;;;5052954;28;20204;-76
2023/09/11 07:58:38;;;;;;;37.70;11.27;;;29.60;55.90;;;;;;5063563;28;20204;-76
2023/09/11 08:01:06;;;;;;;47.97;11.43;;;29.70;56.00;;;;;;5064697;28;20316;-77
2023/09/11 08:03:35;;;;;;;56.37;11.90;;;29.70;56.00;;;;;;5049500;28;20529;-76
2023/09/11 08:06:04;;;;;;;36.73;10.83;;;29.60;55.90;;;;;;5050800;28;20291;-76
2023/09/11 08:08:31;;;;;;;32.33;9.77;;;29.70;56.10;;;;;;5060828;28;20697;-77
2023/09/11 08:10:58;;;;;;;36.83;10.13;;;29.70;56.10;;;;;;5061011;28;20214;-76
2023/09/11 08:13:25;;;;;;;33.87;11.10;;;29.80;56.10;;;;;;5065425;28;20236;-77
2023/09/11 08:15:53;;;;;;;68.77;13.53;;;29.80;56.10;;;;;;5050976;28;20211;-75
2023/09/11 08:18:21;;;;;;;50.30;12.30;;;29.80;56.20;;;;;;5059608;28;20275;-75
2023/09/11 08:20:50;;;;;;;51.87;11.90;;;29.80;56.20;;;;;;5053548;28;20602;-76
2023/09/11 08:23:18;;;;;;;50.80;12.60;;;29.90;56.30;;;;;;5066061;28;20682;-75
2023/09/11 08:25:45;;;;;;;33.73;11.00;;;29.80;56.20;;;;;;5050442;28;20211;-76
2023/09/11 08:28:12;;;;;;;55.37;13.33;;;29.90;56.20;;;;;;5048472;28;20204;-76
2023/09/11 08:30:39;;;;;;;50.27;12.07;;;29.90;56.30;;;;;;5050878;28;21199;-76
2023/09/11 08:33:06;;;;;;;34.60;10.60;;;29.90;56.30;;;;;;5054016;28;20279;-76
2023/09/11 08:35:33;;;;;;;32.70;9.70;;;30.00;56.30;;;;;;5059037;28;20200;-76
2023/09/11 08:38:02;;;;;;;45.77;10.57;;;30.00;56.40;;;;;;5047483;28;20279;-78
2023/09/11 08:40:31;;;;;;;27.63;9.20;;;30.00;56.40;;;;;;5047351;28;20226;-76
2023/09/11 08:42:58;;;;;;;32.30;10.03;;;30.00;56.30;;;;;;5047013;28;20726;-77
2023/09/11 08:45:26;;;;;;;30.90;9.47;;;30.10;56.40;;;;;;5059917;28;20207;-76
2023/09/11 08:47:56;;;;;;;38.87;10.00;;;30.10;56.40;;;;;;5067952;28;20948;-78
2023/09/11 08:50:26;;;;;;;29.50;9.57;;;30.20;56.50;;;;;;5064807;28;20282;-76
2023/09/11 08:52:55;;;;;;;32.83;9.33;;;30.20;57.00;;;;;;5048718;28;20211;-76
2023/09/11 08:55:25;;;;;;;32.67;9.33;;;30.20;56.40;;;;;;5047116;28;20208;-76
2023/09/11 08:57:53;;;;;;;29.30;8.70;;;30.20;56.40;;;;;;5047323;28;20204;-78
2023/09/11 09:00:21;;;;;;;24.80;9.10;;;30.30;56.40;;;;;;5048860;28;20204;-76
2023/09/11 09:02:49;;;;;;;36.90;9.90;;;30.30;56.40;;;;;;5047744;28;20313;-77
2023/09/11 09:05:16;;;;;;;30.83;9.03;;;30.40;56.40;;;;;;5050132;28;20261;-77
2023/09/11 09:07:45;;;;;;;36.77;9.37;;;30.40;56.30;;;;;;5057771;28;20193;-78
2023/09/11 09:10:13;;;;;;;56.90;11.23;;;30.40;56.30;;;;;;5057029;28;20265;-77
2023/09/11 09:12:43;;;;;;;32.03;9.27;;;30.50;56.40;;;;;;5047447;28;20235;-77
2023/09/11 09:15:12;;;;;;;77.38;13.20;;;30.50;56.40;;;;;;5046741;28;20311;-76
2023/09/11 09:17:39;;;;;;;38.07;9.17;;;30.50;56.30;;;;;;5056783;28;20387;-77
2023/09/11 09:20:07;;;;;;;30.88;8.77;;;30.60;56.40;;;;;;5050029;28;20204;-78
2023/09/11 09:22:35;;;;;;;28.63;7.93;;;30.60;56.20;;;;;;5065588;28;20231;-77
2023/09/11 09:25:03;;;;;;;34.70;9.63;;;30.60;56.10;;;;;;5051957;28;20566;-76
2023/09/11 09:27:36;;;;;;;49.97;10.87;;;30.70;56.20;;;;;;5051353;28;20205;-79
2023/09/11 09:30:19;;;;;;;31.37;8.77;;;30.70;56.20;;;;;;5065617;28;20196;-78
2023/09/11 09:32:47;;;;;;;27.27;7.97;;;30.70;56.20;;;;;;5048939;28;20243;-79
2023/09/11 09:35:17;;;;;;;33.50;8.63;;;30.80;56.20;;;;;;5055730;28;20637;-79
2023/09/11 09:37:50;;;;;;;38.63;9.93;;;30.80;56.20;;;;;;5051342;28;20726;-77
2023/09/11 09:40:31;;;;;;;31.08;9.48;;;30.90;56.30;;;;;;5070622;28;20223;-79
2023/09/11 09:42:59;;;;;;;27.45;8.93;;;30.90;56.20;;;;;;5065584;28;20195;-78
2023/09/11 09:45:34;;;;;;;39.35;9.85;;;30.90;56.20;;;;;;5057516;28;20211;-74
2023/09/11 09:48:12;;;;;;;44.63;10.68;;;31.00;56.20;;;;;;5058855;28;20195;-79
2023/09/11 09:50:51;;;;;;;35.85;11.18;;;31.00;56.20;;;;;;5061597;28;20433;-76
2023/09/11 09:53:23;;;;;;;35.13;10.07;;;30.90;56.60;;;;;;5068467;28;20667;-76
2023/09/11 09:55:50;;;;;;;36.15;10.10;;;31.00;56.60;;;;;;5064924;28;20282;-76
2023/09/11 09:58:20;;;;;;;38.70;10.10;;;31.10;56.70;;;;;;5070333;28;20393;-76
2023/09/11 10:00:49;;;;;;;30.27;9.45;;;31.20;56.60;;;;;;5061780;28;20500;-76
2023/09/11 10:03:15;;;;;;;47.75;10.60;;;31.20;56.50;;;;;;5063110;28;20281;-76
2023/09/11 10:05:43;;;;;;;33.80;9.35;;;31.30;56.40;;;;;;5052056;28;20209;-76
2023/09/11 10:08:15;;;;;;;43.15;10.07;;;31.40;56.50;;;;;;5050156;28;20271;-77
2023/09/11 10:10:42;;;;;;;49.95;11.10;;;31.40;56.50;;;;;;5068497;28;20214;-77
2023/09/11 10:13:12;;;;;;;38.78;10.55;;;31.40;56.50;;;;;;5054407;28;20281;-77
2023/09/11 10:15:40;;;;;;;33.03;9.45;;;31.40;56.50;;;;;;5051670;28;20283;-77
2023/09/11 10:18:11;;;;;;;31.50;8.70;;;31.50;56.50;;;;;;5068808;28;20658;-76
2023/09/11 10:20:38;;;;;;;40.20;10.55;;;31.50;56.50;;;;;;5055961;28;20671;-77
2023/09/11 10:23:06;;;;;;;32.70;9.25;;;31.50;56.60;;;;;;5051145;28;20295;-77
2023/09/11 10:25:35;;;;;;;46.25;11.20;;;31.50;56.50;;;;;;5049134;28;20282;-77
2023/09/11 10:28:04;;;;;;;44.80;11.18;;;31.60;56.60;;;;;;5049097;28;20554;-77
2023/09/11 10:30:35;;;;;;;35.85;11.32;;;31.60;56.60;;;;;;5062053;28;20278;-75
2023/09/11 10:33:07;;;;;;;42.33;11.23;;;31.60;56.60;;;;;;5061875;28;20651;-77
2023/09/11 10:35:41;;;;;;;36.30;11.15;;;31.60;56.60;;;;;;5053130;28;20275;-77
2023/09/11 10:38:09;;;;;;;41.53;11.10;;;31.60;56.60;;;;;;5056941;28;20326;-77
2023/09/11 10:40:39;;;;;;;36.97;10.38;;;31.60;56.50;;;;;;5058544;28;20214;-76
2023/09/11 10:43:06;;;;;;;33.35;10.10;;;31.70;56.50;;;;;;5068535;28;20227;-75
2023/09/11 10:45:36;;;;;;;40.40;10.32;;;31.60;56.40;;;;;;5055998;28;20291;-78
2023/09/11 10:48:04;;;;;;;33.83;9.65;;;31.70;56.40;;;;;;5061751;28;20200;-75
2023/09/11 10:50:32;;;;;;;65.50;12.73;;;31.60;56.30;;;;;;5055097;28;20237;-76
2023/09/11 10:53:01;;;;;;;37.40;9.65;;;31.70;56.40;;;;;;5048798;28;20211;-71
2023/09/11 10:55:28;;;;;;;36.75;10.27;;;31.70;56.30;;;;;;5048849;28;20285;-72
2023/09/11 10:57:58;;;;;;;28.58;10.02;;;31.70;56.30;;;;;;5051744;28;20196;-74
2023/09/11 11:00:26;;;;;;;40.00;10.18;;;31.70;56.20;;;;;;5057739;28;20239;-72
2023/09/11 11:02:56;;;;;;;32.75;8.95;;;31.70;56.20;;;;;;5056663;28;20226;-73
2023/09/11 11:05:23;;;;;;;33.40;9.73;;;31.70;56.20;;;;;;5068156;28;20336;-73
2023/09/11 11:07:52;;;;;;;40.75;10.32;;;31.70;56.20;;;;;;5068225;28;20891;-76
2023/09/11 11:10:21;;;;;;;25.38;8.75;;;31.70;56.20;;;;;;5060091;28;20281;-71
2023/09/11 11:12:48;;;;;;;34.22;10.40;;;31.70;56.20;;;;;;5057386;28;20215;-75
2023/09/11 11:15:23;;;;;;;34.13;11.43;;;31.70;56.20;;;;;;5054511;28;20526;-76
2023/09/11 11:18:08;;;;;;;32.17;9.77;;;31.60;56.30;;;;;;5056968;28;20283;-71
2023/09/11 11:20:35;;;;;;;30.05;9.05;;;31.60;56.40;;;;;;5048507;28;20188;-75
2023/09/11 11:23:13;;;;;;;39.85;9.63;;;31.60;56.30;;;;;;5049010;28;20323;-74
2023/09/11 11:25:43;;;;;;;37.72;10.23;;;31.70;56.30;;;;;;5061839;28;20871;-72
2023/09/11 11:28:16;;;;;;;47.08;10.57;;;31.70;56.30;;;;;;5051870;28;20302;-74
2023/09/11 11:30:45;;;;;;;40.50;9.82;;;31.80;56.40;;;;;;5061184;28;20194;-73
2023/09/11 11:33:15;;;;;;;30.92;8.52;;;31.70;56.40;;;;;;5052029;28;20646;-73
2023/09/11 11:35:45;;;;;;;23.70;8.35;;;31.80;56.60;;;;;;5062605;28;20206;-73
2023/09/11 11:38:16;;;;;;;28.65;8.60;;;31.80;56.60;;;;;;5067448;28;20211;-73
2023/09/11 11:40:46;;;;;;;30.20;9.45;;;31.90;56.80;;;;;;5067472;28;20198;-72
2023/09/11 11:43:13;;;;;;;31.52;9.07;;;31.90;56.80;;;;;;5063134;28;20318;-72
2023/09/11 11:45:44;;;;;;;43.00;10.43;;;32.00;56.80;;;;;;5054795;28;20299;-73
2023/09/11 11:48:12;;;;;;;32.30;8.93;;;32.10;56.90;;;;;;5052640;28;20203;-72
2023/09/11 11:50:42;;;;;;;25.13;8.75;;;32.20;57.40;;;;;;5068140;28;20230;-73
2023/09/11 11:53:14;;;;;;;36.40;9.52;;;32.20;56.70;;;;;;5062886;28;20238;-75
2023/09/11 11:55:42;;;;;;;31.10;9.10;;;32.30;56.60;;;;;;5056374;28;20303;-72
2023/09/11 11:58:12;;;;;;;28.20;8.45;;;32.40;56.50;;;;;;5050928;28;20202;-73
2023/09/11 12:00:39;;;;;;;28.23;8.43;;;32.40;56.30;;;;;;5051816;28;20299;-72
2023/09/11 12:03:08;;;;;;;37.10;9.48;;;32.50;56.30;;;;;;5065399;28;20227;-71
2023/09/11 12:05:36;;;;;;;30.10;9.52;;;32.50;56.00;;;;;;5057989;28;20204;-72
2023/09/11 12:08:04;;;;;;;33.65;9.00;;;32.50;56.00;;;;;;5046779;28;21015;-72
2023/09/11 12:10:32;;;;;;;27.55;8.48;;;32.60;55.80;;;;;;5047550;28;20668;-72
2023/09/11 12:13:00;;;;;;;28.83;8.50;;;32.60;55.80;;;;;;5057262;28;20222;-72
2023/09/11 12:15:28;;;;;;;27.33;8.32;;;32.60;55.40;;;;;;5060755;28;20207;-72
2023/09/11 12:17:55;;;;;;;41.10;9.93;;;32.60;55.40;;;;;;5055365;28;20195;-72
2023/09/11 12:20:23;;;;;;;39.78;10.20;;;32.70;55.50;;;;;;5058523;28;20620;-74
2023/09/11 12:22:50;;;;;;;38.67;9.23;;;32.70;55.50;;;;;;5053173;28;20292;-73
2023/09/11 12:25:18;;;;;;;29.23;8.48;;;32.70;55.50;;;;;;5064793;28;20292;-71
2023/09/11 12:27:46;;;;;;;29.88;8.23;;;32.70;55.50;;;;;;5058489;28;20290;-72
2023/09/11 12:30:14;;;;;;;27.13;8.48;;;32.70;55.50;;;;;;5060833;28;20195;-76
2023/09/11 12:32:42;;;;;;;29.98;7.85;;;32.80;55.50;;;;;;5056609;28;20319;-75
2023/09/11 12:35:09;;;;;;;49.00;10.27;;;32.80;55.50;;;;;;5055842;28;20868;-72
2023/09/11 12:37:39;;;;;;;52.45;10.07;;;32.80;55.50;;;;;;5047121;28;20923;-72